createdAt,value
2019-04-27T00:00:28.522Z,774.00
2019-04-27T00:01:27.546Z,774.00
2019-04-27T00:02:29.368Z,774.00
2019-04-27T00:03:29.995Z,776.00
2019-04-27T00:04:30.899Z,775.00
2019-04-27T00:05:35.000Z,775.00
2019-04-27T00:06:30.898Z,774.00
2019-04-27T00:07:33.696Z,774.00
2019-04-27T00:08:35.092Z,774.00
2019-04-27T00:09:34.080Z,774.00
2019-04-27T00:10:33.918Z,774.00
2019-04-27T00:11:37.379Z,774.00
2019-04-27T00:12:35.098Z,774.00
2019-04-27T00:13:40.525Z,773.00
2019-04-27T00:14:36.194Z,773.00
2019-04-27T00:15:37.719Z,773.00
2019-04-27T00:16:40.379Z,773.00
2019-04-27T00:17:45.806Z,773.00
2019-04-27T00:18:38.361Z,774.00
2019-04-27T00:19:39.904Z,776.00
2019-04-27T00:20:40.533Z,776.00
2019-04-27T00:21:41.047Z,776.00
2019-04-27T00:22:41.480Z,775.00
2019-04-27T00:23:42.964Z,775.00
2019-04-27T00:24:41.713Z,774.00
2019-04-27T00:25:43.855Z,774.00
2019-04-27T00:26:43.370Z,774.00
2019-04-27T00:27:43.709Z,774.00
2019-04-27T00:28:44.226Z,774.00
2019-04-27T00:29:45.916Z,774.00
2019-04-27T00:30:46.413Z,775.00
2019-04-27T00:31:47.033Z,776.00
2019-04-27T00:32:47.686Z,776.00
2019-04-27T00:33:48.350Z,775.00
2019-04-27T00:34:48.858Z,774.00
2019-04-27T00:35:49.410Z,774.00
2019-04-27T00:36:50.052Z,774.00
2019-04-27T00:37:50.065Z,774.00
2019-04-27T00:38:50.615Z,774.00
2019-04-27T00:39:51.106Z,774.00
2019-04-27T00:40:51.800Z,774.00
2019-04-27T00:41:53.163Z,774.00
2019-04-27T00:42:54.011Z,774.00
2019-04-27T00:43:53.228Z,774.00
2019-04-27T00:44:54.169Z,774.00
2019-04-27T00:45:53.799Z,773.00
2019-04-27T00:46:54.440Z,774.00
2019-04-27T00:47:59.449Z,774.00
2019-04-27T00:48:55.609Z,774.00
2019-04-27T00:49:57.249Z,773.00
2019-04-27T00:50:57.769Z,774.00
2019-04-27T00:51:58.624Z,774.00
2019-04-27T00:52:59.116Z,774.00
2019-04-27T00:53:59.623Z,774.00
2019-04-27T00:54:08.312Z,774.00
2019-04-27T00:55:10.219Z,774.00
2019-04-27T00:56:11.016Z,774.00
2019-04-27T00:57:13.027Z,773.00
2019-04-27T00:58:10.953Z,774.00
2019-04-27T00:59:13.746Z,774.00
2019-04-27T01:00:13.431Z,774.00
2019-04-27T01:01:14.860Z,775.00
2019-04-27T01:02:13.553Z,775.00
2019-04-27T01:03:14.029Z,776.00
2019-04-27T01:04:14.432Z,775.00
2019-04-27T01:05:15.994Z,774.00
2019-04-27T01:06:16.537Z,774.00
2019-04-27T01:07:17.223Z,774.00
2019-04-27T01:08:17.880Z,773.00
2019-04-27T01:09:18.403Z,774.00
2019-04-27T01:10:18.920Z,774.00
2019-04-27T01:11:19.549Z,774.00
2019-04-27T01:12:20.138Z,774.00
2019-04-27T01:13:20.694Z,774.00
2019-04-27T01:14:22.974Z,774.00
2019-04-27T01:15:20.728Z,774.00
2019-04-27T01:16:24.230Z,774.00
2019-04-27T01:17:21.839Z,774.00
2019-04-27T01:18:23.341Z,774.00
2019-04-27T01:19:23.857Z,775.00
2019-04-27T01:20:24.402Z,775.00
2019-04-27T01:21:23.931Z,776.00
2019-04-27T01:22:25.889Z,777.00
2019-04-27T01:23:26.471Z,778.00
2019-04-27T01:24:26.960Z,782.00
2019-04-27T01:25:28.979Z,780.00
2019-04-27T01:26:28.639Z,780.00
2019-04-27T01:27:28.980Z,778.00
2019-04-27T01:28:29.070Z,778.00
2019-04-27T01:29:29.446Z,778.00
2019-04-27T01:30:31.045Z,781.00
2019-04-27T01:31:31.652Z,783.00
2019-04-27T01:32:33.980Z,785.00
2019-04-27T01:33:32.281Z,786.00
2019-04-27T01:34:33.289Z,786.00
2019-04-27T01:35:33.742Z,785.00
2019-04-27T01:36:34.252Z,784.00
2019-04-27T01:37:34.731Z,783.00
2019-04-27T01:38:35.244Z,782.00
2019-04-27T01:39:35.820Z,780.00
2019-04-27T01:40:36.441Z,780.00
2019-04-27T01:41:39.009Z,778.00
2019-04-27T01:42:36.661Z,777.00
2019-04-27T01:43:38.765Z,778.00
2019-04-27T01:44:39.317Z,778.00
2019-04-27T01:45:39.142Z,778.00
2019-04-27T01:46:39.623Z,778.00
2019-04-27T01:47:39.422Z,777.00
2019-04-27T01:48:40.941Z,778.00
2019-04-27T01:49:41.862Z,778.00
2019-04-27T01:50:41.369Z,778.00
2019-04-27T01:51:42.825Z,777.00
2019-04-27T01:52:43.435Z,780.00
2019-04-27T01:52:51.954Z,780.00
2019-04-27T01:53:53.882Z,778.00
2019-04-27T01:54:54.340Z,780.00
2019-04-27T01:55:59.045Z,778.00
2019-04-27T01:56:54.396Z,778.00
2019-04-27T01:57:55.984Z,778.00
2019-04-27T01:58:56.562Z,778.00
2019-04-27T01:59:57.006Z,780.00
2019-04-27T02:00:57.423Z,782.00
2019-04-27T02:01:58.784Z,782.00
2019-04-27T02:02:57.464Z,781.00
2019-04-27T02:03:59.111Z,780.00
2019-04-27T02:04:59.352Z,782.00
2019-04-27T02:05:59.390Z,783.00
2019-04-27T02:06:59.767Z,782.00
2019-04-27T02:08:01.227Z,781.00
2019-04-27T02:09:01.879Z,781.00
2019-04-27T02:10:02.380Z,781.00
2019-04-27T02:11:02.803Z,782.00
2019-04-27T02:12:03.307Z,782.00
2019-04-27T02:13:03.765Z,782.00
2019-04-27T02:14:04.247Z,784.00
2019-04-27T02:15:04.768Z,783.00
2019-04-27T02:16:05.235Z,782.00
2019-04-27T02:17:05.827Z,783.00
2019-04-27T02:18:06.323Z,784.00
2019-04-27T02:19:09.025Z,785.00
2019-04-27T02:20:06.629Z,785.00
2019-04-27T02:21:09.098Z,784.00
2019-04-27T02:22:08.612Z,783.00
2019-04-27T02:23:09.153Z,782.00
2019-04-27T02:24:09.783Z,781.00
2019-04-27T02:25:09.567Z,781.00
2019-04-27T02:26:11.052Z,780.00
2019-04-27T02:27:11.534Z,780.00
2019-04-27T02:28:12.181Z,778.00
2019-04-27T02:29:12.732Z,780.00
2019-04-27T02:30:13.210Z,778.00
2019-04-27T02:31:13.772Z,778.00
2019-04-27T02:32:14.229Z,778.00
2019-04-27T02:33:14.882Z,778.00
2019-04-27T02:34:15.369Z,776.00
2019-04-27T02:35:15.839Z,776.00
2019-04-27T02:36:16.361Z,778.00
2019-04-27T02:37:19.773Z,778.00
2019-04-27T02:38:16.395Z,778.00
2019-04-27T02:39:19.706Z,778.00
2019-04-27T02:40:20.230Z,778.00
2019-04-27T02:41:19.871Z,778.00
2019-04-27T02:42:20.046Z,778.00
2019-04-27T02:43:19.538Z,778.00
2019-04-27T02:44:20.103Z,780.00
2019-04-27T02:45:22.223Z,780.00
2019-04-27T02:46:21.099Z,780.00
2019-04-27T02:47:22.720Z,778.00
2019-04-27T02:48:23.164Z,778.00
2019-04-27T02:49:23.739Z,778.00
2019-04-27T02:50:24.293Z,778.00
2019-04-27T02:50:32.860Z,778.00
2019-04-27T02:51:34.321Z,778.00
2019-04-27T02:52:34.925Z,778.00
2019-04-27T02:53:35.739Z,778.00
2019-04-27T02:54:36.344Z,778.00
2019-04-27T02:55:39.463Z,778.00
2019-04-27T02:56:36.359Z,778.00
2019-04-27T02:57:39.913Z,777.00
2019-04-27T02:58:37.491Z,778.00
2019-04-27T02:59:39.891Z,778.00
2019-04-27T03:00:40.052Z,777.00
2019-04-27T03:01:43.427Z,778.00
2019-04-27T03:02:40.239Z,778.00
2019-04-27T03:03:41.154Z,778.00
2019-04-27T03:04:40.458Z,780.00
2019-04-27T03:05:41.963Z,784.00
2019-04-27T03:06:42.807Z,783.00
2019-04-27T03:07:43.779Z,782.00
2019-04-27T03:08:44.386Z,780.00
2019-04-27T03:09:44.905Z,778.00
2019-04-27T03:10:45.369Z,778.00
2019-04-27T03:11:45.857Z,778.00
2019-04-27T03:12:46.453Z,778.00
2019-04-27T03:13:49.399Z,781.00
2019-04-27T03:14:46.720Z,781.00
2019-04-27T03:15:49.677Z,780.00
2019-04-27T03:16:49.635Z,780.00
2019-04-27T03:17:49.439Z,780.00
2019-04-27T03:18:50.739Z,778.00
2019-04-27T03:19:52.261Z,778.00
2019-04-27T03:20:50.553Z,778.00
2019-04-27T03:21:50.741Z,778.00
2019-04-27T03:22:52.253Z,778.00
2019-04-27T03:23:52.781Z,778.00
2019-04-27T03:24:53.364Z,778.00
2019-04-27T03:25:53.882Z,778.00
2019-04-27T03:26:54.367Z,778.00
2019-04-27T03:27:54.932Z,778.00
2019-04-27T03:28:55.439Z,778.00
2019-04-27T03:29:55.943Z,778.00
2019-04-27T03:30:56.665Z,778.00
2019-04-27T03:32:01.580Z,778.00
2019-04-27T03:33:01.552Z,778.00
2019-04-27T03:34:03.491Z,782.00
2019-04-27T03:35:02.136Z,782.00
2019-04-27T03:36:02.024Z,780.00
2019-04-27T03:36:59.788Z,780.00
2019-04-27T03:38:00.559Z,780.00
2019-04-27T03:39:00.190Z,781.00
2019-04-27T03:40:00.687Z,782.00
2019-04-27T03:41:02.213Z,782.00
2019-04-27T03:42:02.726Z,780.00
2019-04-27T03:43:03.295Z,780.00
2019-04-27T03:44:03.798Z,781.00
2019-04-27T03:45:04.275Z,780.00
2019-04-27T03:46:04.792Z,780.00
2019-04-27T03:47:05.256Z,778.00
2019-04-27T03:48:05.780Z,778.00
2019-04-27T03:49:06.435Z,780.00
2019-04-27T03:50:06.940Z,782.00
2019-04-27T03:51:09.799Z,782.00
2019-04-27T03:52:09.491Z,781.00
2019-04-27T03:52:15.613Z,781.00
2019-04-27T03:53:17.114Z,780.00
2019-04-27T03:54:19.382Z,780.00
2019-04-27T03:55:19.745Z,780.00
2019-04-27T03:56:19.977Z,780.00
2019-04-27T03:57:19.893Z,780.00
2019-04-27T03:58:21.659Z,780.00
2019-04-27T03:59:19.715Z,781.00
2019-04-27T04:00:21.155Z,781.00
2019-04-27T04:01:21.637Z,780.00
2019-04-27T04:02:22.092Z,780.00
2019-04-27T04:03:23.106Z,778.00
2019-04-27T04:04:23.720Z,780.00
2019-04-27T04:05:24.185Z,778.00
2019-04-27T04:06:24.702Z,780.00
2019-04-27T04:07:25.245Z,780.00
2019-04-27T04:08:25.716Z,780.00
2019-04-27T04:09:26.283Z,780.00
2019-04-27T04:10:29.180Z,778.00
2019-04-27T04:11:26.537Z,780.00
2019-04-27T04:12:30.279Z,780.00
2019-04-27T04:13:29.545Z,780.00
2019-04-27T04:14:30.218Z,778.00
2019-04-27T04:15:29.806Z,780.00
2019-04-27T04:16:29.820Z,780.00
2019-04-27T04:17:30.995Z,780.00
2019-04-27T04:18:31.777Z,780.00
2019-04-27T04:19:47.473Z,778.00
2019-04-27T04:20:31.902Z,777.00
2019-04-27T04:21:33.539Z,778.00
2019-04-27T04:22:34.071Z,780.00
2019-04-27T04:23:34.886Z,780.00
2019-04-27T04:24:35.383Z,780.00
2019-04-27T04:25:35.882Z,780.00
2019-04-27T04:26:36.327Z,780.00
2019-04-27T04:27:36.790Z,780.00
2019-04-27T04:28:39.590Z,783.00
2019-04-27T04:29:39.243Z,783.00
2019-04-27T04:30:40.059Z,782.00
2019-04-27T04:31:40.501Z,781.00
2019-04-27T04:32:39.639Z,782.00
2019-04-27T04:33:40.370Z,782.00
2019-04-27T04:34:40.079Z,782.00
2019-04-27T04:35:40.475Z,780.00
2019-04-27T04:36:42.493Z,780.00
2019-04-27T04:37:41.570Z,780.00
2019-04-27T04:38:43.051Z,780.00
2019-04-27T04:39:43.720Z,780.00
2019-04-27T04:40:44.278Z,780.00
2019-04-27T04:41:44.772Z,778.00
2019-04-27T04:42:45.229Z,780.00
2019-04-27T04:43:45.730Z,778.00
2019-04-27T04:44:46.241Z,780.00
2019-04-27T04:45:49.783Z,778.00
2019-04-27T04:46:46.734Z,780.00
2019-04-27T04:47:49.711Z,778.00
2019-04-27T04:48:50.171Z,783.00
2019-04-27T04:49:54.591Z,784.00
2019-04-27T04:50:50.040Z,784.00
2019-04-27T04:51:50.378Z,784.00
2019-04-27T04:52:50.149Z,783.00
2019-04-27T04:53:51.859Z,784.00
2019-04-27T04:54:51.131Z,783.00
2019-04-27T04:55:52.696Z,782.00
2019-04-27T04:56:53.208Z,783.00
2019-04-27T04:57:53.678Z,783.00
2019-04-27T04:58:54.363Z,782.00
2019-04-27T04:59:54.983Z,780.00
2019-04-27T05:00:03.576Z,781.00
2019-04-27T05:01:05.045Z,780.00
2019-04-27T05:02:05.624Z,780.00
2019-04-27T05:03:06.115Z,780.00
2019-04-27T05:04:06.626Z,780.00
2019-04-27T05:05:07.219Z,781.00
2019-04-27T05:06:08.817Z,780.00
2019-04-27T05:07:09.030Z,778.00
2019-04-27T05:08:09.058Z,780.00
2019-04-27T05:09:09.272Z,778.00
2019-04-27T05:10:09.233Z,778.00
2019-04-27T05:11:09.803Z,778.00
2019-04-27T05:12:11.324Z,778.00
2019-04-27T05:13:11.954Z,776.00
2019-04-27T05:14:12.421Z,776.00
2019-04-27T05:15:12.856Z,776.00
2019-04-27T05:16:13.340Z,776.00
2019-04-27T05:17:13.557Z,776.00
2019-04-27T05:18:14.363Z,776.00
2019-04-27T05:19:13.807Z,775.00
2019-04-27T05:20:22.494Z,776.00
2019-04-27T05:21:14.564Z,775.00
2019-04-27T05:22:16.370Z,775.00
2019-04-27T05:23:18.533Z,775.00
2019-04-27T05:24:16.260Z,774.00
2019-04-27T05:25:18.557Z,776.00
2019-04-27T05:26:19.377Z,775.00
2019-04-27T05:27:19.138Z,774.00
2019-04-27T05:28:18.873Z,774.00
2019-04-27T05:29:19.290Z,774.00
2019-04-27T05:30:19.804Z,775.00
2019-04-27T05:31:21.453Z,774.00
2019-04-27T05:32:22.094Z,776.00
2019-04-27T05:33:22.642Z,775.00
2019-04-27T05:34:23.301Z,776.00
2019-04-27T05:35:23.722Z,776.00
2019-04-27T05:36:24.252Z,776.00
2019-04-27T05:37:28.208Z,776.00
2019-04-27T05:38:24.293Z,775.00
2019-04-27T05:39:26.377Z,775.00
2019-04-27T05:40:24.734Z,774.00
2019-04-27T05:41:26.230Z,774.00
2019-04-27T05:42:28.572Z,774.00
2019-04-27T05:43:30.162Z,775.00
2019-04-27T05:44:28.637Z,774.00
2019-04-27T05:45:29.121Z,775.00
2019-04-27T05:46:31.268Z,775.00
2019-04-27T05:47:29.262Z,775.00
2019-04-27T05:48:30.748Z,775.00
2019-04-27T05:49:29.915Z,778.00
2019-04-27T05:50:38.723Z,782.00
2019-04-27T05:51:37.006Z,780.00
2019-04-27T05:52:31.647Z,776.00
2019-04-27T05:53:32.235Z,777.00
2019-04-27T05:54:33.765Z,776.00
2019-04-27T05:55:34.340Z,776.00
2019-04-27T05:56:34.806Z,776.00
2019-04-27T05:57:35.359Z,775.00
2019-04-27T05:58:36.277Z,775.00
2019-04-27T05:59:36.787Z,775.00
2019-04-27T06:00:39.229Z,775.00
2019-04-27T06:01:38.749Z,775.00
2019-04-27T06:02:37.417Z,775.00
2019-04-27T06:03:39.668Z,775.00
2019-04-27T06:04:39.063Z,775.00
2019-04-27T06:04:46.933Z,774.00
2019-04-27T06:05:48.930Z,775.00
2019-04-27T06:06:49.722Z,774.00
2019-04-27T06:07:48.869Z,774.00
2019-04-27T06:08:49.461Z,774.00
2019-04-27T06:09:49.459Z,774.00
2019-04-27T06:10:51.016Z,774.00
2019-04-27T06:11:51.795Z,774.00
2019-04-27T06:12:52.481Z,774.00
2019-04-27T06:13:53.078Z,774.00
2019-04-27T06:14:53.601Z,773.00
2019-04-27T06:15:54.121Z,774.00
2019-04-27T06:16:54.660Z,774.00
2019-04-27T06:17:55.151Z,774.00
2019-04-27T06:18:55.721Z,774.00
2019-04-27T06:19:55.705Z,774.00
2019-04-27T06:20:56.353Z,775.00
2019-04-27T06:21:56.982Z,774.00
2019-04-27T06:22:58.902Z,774.00
2019-04-27T06:23:58.702Z,774.00
2019-04-27T06:24:59.691Z,774.00
2019-04-27T06:26:01.591Z,774.00
2019-04-27T06:26:59.733Z,774.00
2019-04-27T06:27:59.516Z,774.00
2019-04-27T06:29:01.256Z,774.00
2019-04-27T06:30:04.792Z,774.00
2019-04-27T06:31:01.493Z,774.00
2019-04-27T06:32:02.983Z,774.00
2019-04-27T06:33:03.483Z,774.00
2019-04-27T06:34:03.998Z,774.00
2019-04-27T06:35:04.501Z,775.00
2019-04-27T06:36:04.977Z,774.00
2019-04-27T06:37:05.502Z,774.00
2019-04-27T06:38:06.159Z,774.00
2019-04-27T06:39:06.684Z,773.00
2019-04-27T06:40:07.465Z,773.00
2019-04-27T06:41:10.008Z,773.00
2019-04-27T06:42:16.634Z,773.00
2019-04-27T06:43:08.673Z,773.00
2019-04-27T06:44:11.024Z,773.00
2019-04-27T06:45:09.910Z,773.00
2019-04-27T06:46:09.265Z,773.00
2019-04-27T06:47:10.829Z,773.00
2019-04-27T06:48:11.301Z,773.00
2019-04-27T06:49:11.865Z,773.00
2019-04-27T06:50:12.452Z,773.00
2019-04-27T06:51:12.960Z,772.00
2019-04-27T06:52:13.406Z,772.00
2019-04-27T06:53:13.869Z,773.00
2019-04-27T06:54:14.598Z,773.00
2019-04-27T06:55:15.204Z,773.00
2019-04-27T06:56:15.688Z,773.00
2019-04-27T06:57:16.144Z,773.00
2019-04-27T06:58:16.669Z,773.00
2019-04-27T06:59:18.623Z,772.00
2019-04-27T07:00:16.632Z,772.00
2019-04-27T07:01:19.068Z,772.00
2019-04-27T07:02:19.015Z,772.00
2019-04-27T07:03:18.920Z,772.00
2019-04-27T07:04:19.627Z,773.00
2019-04-27T07:05:20.464Z,773.00
2019-04-27T07:05:28.931Z,773.00
2019-04-27T07:06:28.637Z,772.00
2019-04-27T07:07:29.480Z,772.00
2019-04-27T07:08:30.886Z,771.00
2019-04-27T07:09:29.782Z,772.00
2019-04-27T07:10:31.256Z,770.00
2019-04-27T07:11:31.499Z,770.00
2019-04-27T07:12:31.937Z,770.00
2019-04-27T07:13:32.379Z,770.00
2019-04-27T07:14:32.852Z,770.00
2019-04-27T07:15:33.580Z,770.00
2019-04-27T07:16:34.074Z,770.00
2019-04-27T07:17:34.624Z,769.00
2019-04-27T07:18:35.207Z,769.00
2019-04-27T07:19:35.890Z,769.00
2019-04-27T07:20:36.376Z,769.00
2019-04-27T07:21:36.896Z,769.00
2019-04-27T07:22:37.394Z,770.00
2019-04-27T07:23:38.893Z,769.00
2019-04-27T07:24:38.756Z,769.00
2019-04-27T07:25:38.874Z,768.00
2019-04-27T07:26:39.202Z,770.00
2019-04-27T07:27:39.621Z,770.00
2019-04-27T07:28:41.008Z,772.00
2019-04-27T07:29:44.636Z,769.00
2019-04-27T07:30:41.116Z,769.00
2019-04-27T07:31:42.704Z,768.00
2019-04-27T07:32:43.253Z,768.00
2019-04-27T07:33:43.851Z,768.00
2019-04-27T07:34:44.367Z,769.00
2019-04-27T07:35:44.944Z,769.00
2019-04-27T07:36:45.406Z,769.00
2019-04-27T07:37:46.082Z,768.00
2019-04-27T07:38:48.471Z,768.00
2019-04-27T07:39:46.118Z,769.00
2019-04-27T07:40:48.900Z,769.00
2019-04-27T07:41:48.765Z,766.00
2019-04-27T07:42:49.526Z,768.00
2019-04-27T07:43:49.425Z,768.00
2019-04-27T07:44:50.018Z,768.00
2019-04-27T07:45:49.911Z,766.00
2019-04-27T07:46:51.534Z,766.00
2019-04-27T07:47:52.039Z,768.00
2019-04-27T07:48:52.522Z,770.00
2019-04-27T07:49:53.066Z,770.00
2019-04-27T07:50:53.543Z,769.00
2019-04-27T07:51:54.081Z,770.00
2019-04-27T07:52:54.639Z,769.00
2019-04-27T07:53:55.170Z,766.00
2019-04-27T07:54:55.764Z,768.00
2019-04-27T07:55:56.472Z,769.00
2019-04-27T07:56:58.736Z,769.00
2019-04-27T07:57:56.564Z,769.00
2019-04-27T07:58:59.547Z,769.00
2019-04-27T07:59:59.490Z,768.00
2019-04-27T08:00:59.401Z,769.00
2019-04-27T08:01:59.129Z,770.00
2019-04-27T08:02:59.114Z,770.00
2019-04-27T08:04:00.156Z,769.00
2019-04-27T08:05:00.790Z,768.00
2019-04-27T08:06:01.463Z,769.00
2019-04-27T08:07:01.980Z,769.00
2019-04-27T08:07:10.556Z,769.00
2019-04-27T08:08:12.335Z,770.00
2019-04-27T08:09:12.800Z,769.00
2019-04-27T08:10:13.291Z,770.00
2019-04-27T08:11:13.813Z,769.00
2019-04-27T08:12:14.331Z,769.00
2019-04-27T08:13:14.801Z,769.00
2019-04-27T08:14:15.277Z,768.00
2019-04-27T08:15:15.763Z,769.00
2019-04-27T08:16:16.378Z,770.00
2019-04-27T08:17:16.900Z,769.00
2019-04-27T08:18:18.985Z,769.00
2019-04-27T08:19:16.934Z,769.00
2019-04-27T08:20:19.227Z,771.00
2019-04-27T08:21:18.897Z,770.00
2019-04-27T08:22:19.398Z,769.00
2019-04-27T08:23:19.549Z,769.00
2019-04-27T08:24:19.469Z,769.00
2019-04-27T08:25:19.292Z,768.00
2019-04-27T08:26:20.904Z,766.00
2019-04-27T08:27:21.553Z,769.00
2019-04-27T08:28:22.152Z,766.00
2019-04-27T08:29:22.844Z,771.00
2019-04-27T08:30:23.455Z,769.00
2019-04-27T08:31:23.991Z,769.00
2019-04-27T08:32:24.520Z,768.00
2019-04-27T08:33:24.960Z,768.00
2019-04-27T08:34:25.549Z,768.00
2019-04-27T08:35:26.097Z,768.00
2019-04-27T08:36:26.598Z,766.00
2019-04-27T08:37:28.668Z,765.00
2019-04-27T08:38:26.854Z,766.00
2019-04-27T08:39:29.666Z,766.00
2019-04-27T08:40:29.312Z,766.00
2019-04-27T08:41:29.555Z,766.00
2019-04-27T08:42:29.415Z,766.00
2019-04-27T08:43:29.267Z,769.00
2019-04-27T08:44:31.830Z,766.00
2019-04-27T08:45:30.488Z,766.00
2019-04-27T08:46:31.334Z,769.00
2019-04-27T08:47:33.053Z,769.00
2019-04-27T08:48:36.632Z,770.00
2019-04-27T08:49:32.552Z,771.00
2019-04-27T08:50:33.410Z,774.00
2019-04-27T08:51:35.391Z,772.00
2019-04-27T08:52:35.976Z,770.00
2019-04-27T08:53:36.514Z,771.00
2019-04-27T08:54:37.042Z,769.00
2019-04-27T08:55:39.432Z,772.00
2019-04-27T08:56:37.268Z,770.00
2019-04-27T08:57:39.046Z,769.00
2019-04-27T08:58:38.709Z,773.00
2019-04-27T08:59:39.528Z,773.00
2019-04-27T09:00:39.908Z,772.00
2019-04-27T09:01:41.541Z,770.00
2019-04-27T09:02:47.013Z,768.00
2019-04-27T09:03:41.781Z,768.00
2019-04-27T09:04:43.644Z,769.00
2019-04-27T09:05:44.218Z,769.00
2019-04-27T09:06:44.837Z,768.00
2019-04-27T09:06:53.414Z,768.00
2019-04-27T09:07:55.061Z,770.00
2019-04-27T09:08:55.781Z,768.00
2019-04-27T09:09:56.325Z,768.00
2019-04-27T09:10:56.944Z,766.00
2019-04-27T09:11:59.374Z,768.00
2019-04-27T09:12:58.774Z,768.00
2019-04-27T09:13:58.959Z,768.00
2019-04-27T09:14:59.211Z,768.00
2019-04-27T09:16:00.053Z,766.00
2019-04-27T09:17:02.302Z,769.00
2019-04-27T09:17:59.417Z,768.00
2019-04-27T09:19:00.935Z,771.00
2019-04-27T09:20:01.767Z,772.00
2019-04-27T09:21:00.761Z,770.00
2019-04-27T09:22:12.417Z,770.00
2019-04-27T09:23:02.148Z,773.00
2019-04-27T09:24:02.625Z,772.00
2019-04-27T09:25:04.175Z,773.00
2019-04-27T09:26:04.774Z,773.00
2019-04-27T09:27:05.413Z,775.00
2019-04-27T09:28:06.080Z,775.00
2019-04-27T09:29:06.642Z,774.00
2019-04-27T09:30:08.424Z,776.00
2019-04-27T09:31:06.695Z,775.00
2019-04-27T09:32:08.915Z,774.00
2019-04-27T09:33:07.817Z,776.00
2019-04-27T09:34:10.551Z,776.00
2019-04-27T09:35:09.179Z,775.00
2019-04-27T09:36:10.700Z,775.00
2019-04-27T09:37:11.387Z,775.00
2019-04-27T09:38:12.137Z,775.00
2019-04-27T09:39:13.020Z,775.00
2019-04-27T09:40:13.598Z,773.00
2019-04-27T09:41:14.119Z,776.00
2019-04-27T09:42:16.628Z,774.00
2019-04-27T09:43:15.765Z,774.00
2019-04-27T09:44:16.073Z,774.00
2019-04-27T09:45:15.909Z,774.00
2019-04-27T09:46:16.129Z,776.00
2019-04-27T09:47:17.732Z,774.00
2019-04-27T09:48:18.235Z,773.00
2019-04-27T09:49:18.707Z,773.00
2019-04-27T09:50:19.149Z,772.00
2019-04-27T09:51:19.659Z,773.00
2019-04-27T09:52:26.173Z,772.00
2019-04-27T09:53:20.004Z,770.00
2019-04-27T09:54:20.372Z,773.00
2019-04-27T09:55:21.873Z,774.00
2019-04-27T09:56:22.342Z,773.00
2019-04-27T09:57:22.941Z,773.00
2019-04-27T09:58:23.401Z,771.00
2019-04-27T09:59:24.226Z,773.00
2019-04-27T10:00:24.761Z,772.00
2019-04-27T10:01:24.296Z,770.00
2019-04-27T10:02:26.949Z,770.00
2019-04-27T10:03:26.665Z,769.00
2019-04-27T10:04:26.319Z,769.00
2019-04-27T10:05:26.505Z,770.00
2019-04-27T10:06:29.855Z,769.00
2019-04-27T10:07:27.466Z,770.00
2019-04-27T10:08:29.029Z,774.00
2019-04-27T10:08:37.531Z,774.00
2019-04-27T10:09:39.377Z,773.00
2019-04-27T10:10:39.964Z,773.00
2019-04-27T10:11:40.520Z,772.00
2019-04-27T10:12:41.049Z,772.00
2019-04-27T10:13:40.512Z,768.00
2019-04-27T10:14:42.077Z,772.00
2019-04-27T10:15:42.619Z,771.00
2019-04-27T10:16:43.091Z,770.00
2019-04-27T10:17:43.681Z,773.00
2019-04-27T10:18:45.857Z,772.00
2019-04-27T10:19:43.875Z,772.00
2019-04-27T10:20:56.943Z,772.00
2019-04-27T10:21:46.746Z,770.00
2019-04-27T10:22:46.407Z,770.00
2019-04-27T10:23:47.068Z,769.00
2019-04-27T10:24:47.233Z,768.00
2019-04-27T10:25:48.813Z,768.00
2019-04-27T10:26:49.558Z,768.00
2019-04-27T10:27:50.067Z,766.00
2019-04-27T10:28:50.582Z,766.00
2019-04-27T10:29:51.174Z,768.00
2019-04-27T10:30:51.675Z,768.00
2019-04-27T10:31:52.193Z,768.00
2019-04-27T10:32:52.616Z,769.00
2019-04-27T10:33:53.172Z,770.00
2019-04-27T10:34:53.717Z,769.00
2019-04-27T10:35:56.303Z,769.00
2019-04-27T10:36:55.758Z,769.00
2019-04-27T10:37:54.580Z,771.00
2019-04-27T10:38:56.085Z,770.00
2019-04-27T10:39:56.657Z,770.00
2019-04-27T10:40:56.904Z,773.00
2019-04-27T10:41:56.959Z,773.00
2019-04-27T10:42:57.505Z,770.00
2019-04-27T10:43:57.611Z,772.00
2019-04-27T10:44:58.154Z,773.00
2019-04-27T10:45:58.957Z,770.00
2019-04-27T10:46:59.591Z,770.00
2019-04-27T10:47:59.930Z,769.00
2019-04-27T10:49:00.368Z,766.00
2019-04-27T10:50:01.002Z,768.00
2019-04-27T10:51:01.522Z,766.00
2019-04-27T10:52:02.079Z,768.00
2019-04-27T10:53:02.744Z,768.00
2019-04-27T10:54:03.276Z,765.00
2019-04-27T10:55:03.817Z,765.00
2019-04-27T10:56:04.220Z,766.00
2019-04-27T10:57:06.049Z,765.00
2019-04-27T10:58:04.202Z,763.00
2019-04-27T10:59:06.518Z,765.00
2019-04-27T11:00:06.727Z,763.00
2019-04-27T11:01:05.679Z,763.00
2019-04-27T11:01:16.645Z,763.00
2019-04-27T11:02:18.095Z,765.00
2019-04-27T11:03:18.619Z,766.00
2019-04-27T11:04:19.594Z,765.00
2019-04-27T11:05:20.041Z,763.00
2019-04-27T11:06:20.605Z,763.00
2019-04-27T11:07:21.005Z,764.00
2019-04-27T11:08:21.371Z,765.00
2019-04-27T11:09:21.733Z,765.00
2019-04-27T11:10:22.178Z,765.00
2019-04-27T11:11:22.892Z,769.00
2019-04-27T11:12:23.620Z,768.00
2019-04-27T11:13:25.769Z,768.00
2019-04-27T11:14:23.626Z,765.00
2019-04-27T11:15:26.351Z,766.00
2019-04-27T11:16:24.565Z,765.00
2019-04-27T11:17:26.710Z,768.00
2019-04-27T11:18:25.768Z,766.00
2019-04-27T11:19:26.756Z,765.00
2019-04-27T11:20:27.818Z,765.00
2019-04-27T11:21:26.543Z,765.00
2019-04-27T11:22:28.116Z,766.00
2019-04-27T11:23:28.357Z,764.00
2019-04-27T11:24:28.854Z,764.00
2019-04-27T11:25:29.338Z,764.00
2019-04-27T11:26:29.743Z,766.00
2019-04-27T11:27:30.193Z,765.00
2019-04-27T11:28:30.566Z,768.00
2019-04-27T11:29:30.963Z,769.00
2019-04-27T11:30:31.479Z,769.00
2019-04-27T11:31:31.938Z,769.00
2019-04-27T11:32:32.492Z,769.00
2019-04-27T11:33:33.064Z,769.00
2019-04-27T11:34:33.557Z,772.00
2019-04-27T11:35:35.335Z,772.00
2019-04-27T11:36:35.529Z,769.00
2019-04-27T11:37:35.632Z,770.00
2019-04-27T11:38:36.479Z,772.00
2019-04-27T11:39:35.924Z,770.00
2019-04-27T11:40:36.691Z,769.00
2019-04-27T11:41:35.981Z,770.00
2019-04-27T11:42:37.612Z,774.00
2019-04-27T11:43:38.087Z,776.00
2019-04-27T11:44:38.534Z,778.00
2019-04-27T11:45:39.287Z,783.00
2019-04-27T11:46:39.766Z,782.00
2019-04-27T11:47:40.335Z,784.00
2019-04-27T11:48:40.819Z,785.00
2019-04-27T11:49:41.322Z,787.00
2019-04-27T11:50:41.920Z,787.00
2019-04-27T11:51:42.413Z,792.00
2019-04-27T11:52:43.292Z,793.00
2019-04-27T11:53:46.938Z,793.00
2019-04-27T11:54:43.537Z,793.00
2019-04-27T11:55:45.010Z,793.00
2019-04-27T11:55:53.598Z,792.00
2019-04-27T11:56:56.068Z,792.00
2019-04-27T11:57:56.000Z,788.00
2019-04-27T11:58:56.050Z,788.00
2019-04-27T11:59:56.300Z,793.00
2019-04-27T12:00:56.191Z,792.00
2019-04-27T12:01:57.804Z,792.00
2019-04-27T12:02:58.372Z,792.00
2019-04-27T12:03:58.876Z,793.00
2019-04-27T12:04:59.327Z,793.00
2019-04-27T12:06:00.432Z,792.00
2019-04-27T12:06:59.647Z,790.00
2019-04-27T12:08:01.056Z,788.00
2019-04-27T12:09:01.777Z,787.00
2019-04-27T12:10:02.229Z,788.00
2019-04-27T12:11:02.693Z,788.00
2019-04-27T12:12:13.622Z,788.00
2019-04-27T12:13:02.972Z,787.00
2019-04-27T12:14:03.486Z,786.00
2019-04-27T12:15:05.810Z,788.00
2019-04-27T12:16:04.284Z,787.00
2019-04-27T12:17:06.333Z,786.00
2019-04-27T12:18:08.995Z,784.00
2019-04-27T12:19:06.553Z,784.00
2019-04-27T12:20:06.355Z,783.00
2019-04-27T12:21:07.923Z,782.00
2019-04-27T12:22:08.544Z,782.00
2019-04-27T12:23:09.084Z,782.00
2019-04-27T12:24:09.538Z,781.00
2019-04-27T12:25:10.000Z,780.00